Country Club Hills, Illinois
Current Conditions -  °F | °C
As of 2:35 AM on Monday 26 Jan 2015 (Local Time) from KIGQ Reporting Station
Broken Clouds Broken Clouds  
Wind Chill: 14°   Ceiling: 2200
Heat Index: 22°   Visibility: 10mi
Dew Point: 15°   Wind: 6mph
Humidity: 77%   Direction: 60°ENE
Pressure: 29.98"   Gusts: NA
Location:  41.56°N, 87.72°W
Report Text: KIGQ 260835Z AUTO 06005KT 10SM BKN022 M06/M09 A2998 RMK AO2 T10581092
Loading
Personal Weather Stations






























Interactive Weather Map New forecast layout! Learn more

10-Day Weather Forecast

Advertisements
Track Severe Weather on mobile